Juergen K — PBKV — position and weather

sailwx.info

Track history (hours):
 
Tides and Currents Weather Stations Pressure Air Temp Water Temp Dewpoint Dewpoint Depression Visibility Wind Speed Wind Dir Waves Ship Positions

Juergen K

Last reported at 2017-Mar-30 22:33 UTC. Time now 2017-Mar-30 22:38 UTC.
Position N 51°10' E 003°47'.

; draft 3.6 m.

Type: Cargo ship. MMSI: 244329000.

Date/timePositionNaut miles runAvg speedWind from/ knotsBaromVisibWave heightAir tempDewpointWater temp
2017-Mar-30 22:33N 51°10' E 003°47'0 0.0
2017-Mar-30 21:33N 51°10' E 003°47'0 0.0
2017-Mar-30 20:30N 51°10' E 003°47'0 0.0
2017-Mar-30 19:24N 51°10' E 003°47'0 0.0
2017-Mar-30 18:30N 51°10' E 003°47'0 0.0
2017-Mar-30 17:30N 51°10' E 003°47'0 0.0
2017-Mar-30 16:33N 51°10' E 003°47'0 0.0
2017-Mar-30 15:33N 51°10' E 003°47'0 0.0
2017-Mar-30 14:33N 51°10' E 003°47'0 0.0
2017-Mar-30 13:33N 51°10' E 003°47'0 0.0
2017-Mar-30 12:33N 51°10' E 003°47'0 0.0
2017-Mar-30 11:33N 51°10' E 003°47'0 0.0
2017-Mar-30 10:33N 51°10' E 003°47'0 0.0
2017-Mar-30 09:33N 51°10' E 003°47'0 0.0
2017-Mar-30 08:33N 51°10' E 003°47'0 0.0
2017-Mar-30 07:30N 51°10' E 003°47'0 0.0
2017-Mar-30 06:33N 51°10' E 003°47'3 3.4
2017-Mar-30 05:33N 51°13' E 003°48'6 6.3
2017-Mar-30 04:33N 51°19' E 003°49'1 1.3
2017-Mar-30 03:33N 51°20' E 003°49'9 9.0
2017-Mar-30 02:33N 51°25' E 003°37'1010.2
2017-Mar-30 01:33N 51°33' E 003°25'1110.7
2017-Mar-30 00:29N 51°42' E 003°16'8 2.1
2017-Mar-29 20:30N 51°51' E 003°15'19 8.8
2017-Mar-29 18:19N 52°03' E 003°39'810.3
2017-Mar-29 17:33N 52°04' E 003°51'10 9.9
2017-Mar-29 16:33N 51°59' E 004°06'9 8.8
2017-Mar-29 15:33N 51°54' E 004°17'2 1.5
2017-Mar-29 14:31N 51°54' E 004°20'0 0.0
2017-Mar-29 13:31N 51°54' E 004°20'0 0.0
2017-Mar-29 12:31N 51°54' E 004°20'0 0.0
2017-Mar-29 11:31N 51°54' E 004°20'0 0.0
2017-Mar-29 10:31N 51°54' E 004°20'0 0.0
2017-Mar-29 09:28N 51°54' E 004°20'0 0.0
2017-Mar-29 08:31N 51°54' E 004°20'0 0.0
2017-Mar-29 07:31N 51°54' E 004°20'0 0.0
2017-Mar-29 06:31N 51°54' E 004°20'0 0.0
2017-Mar-29 05:31N 51°54' E 004°20'0 0.0
2017-Mar-29 04:31N 51°54' E 004°20'0 0.0
2017-Mar-29 03:31N 51°54' E 004°20'0 0.0
2017-Mar-29 02:31N 51°54' E 004°20'0 0.0
2017-Mar-29 01:31N 51°54' E 004°20'0 0.0
2017-Mar-29 00:31N 51°54' E 004°20'0 0.0
2017-Mar-28 23:31N 51°54' E 004°20'0 0.0
2017-Mar-28 22:28N 51°54' E 004°20'0 0.0
2017-Mar-28 21:31N 51°54' E 004°20'0 0.0
2017-Mar-28 20:31N 51°54' E 004°20'0 0.0
2017-Mar-28 19:31N 51°54' E 004°20'0 0.0
2017-Mar-28 18:28N 51°54' E 004°20'0 0.0
2017-Mar-28 17:31N 51°54' E 004°20'0 0.0
2017-Mar-28 16:31N 51°54' E 004°20'0 0.0
2017-Mar-28 15:31N 51°54' E 004°20'0 0.0
2017-Mar-28 14:31N 51°54' E 004°20'0 0.0
2017-Mar-28 13:31N 51°54' E 004°20'0 0.0
2017-Mar-28 12:31N 51°54' E 004°20'0 0.0
2017-Mar-28 11:31N 51°54' E 004°20'0 0.0
2017-Mar-28 10:31N 51°54' E 004°20'0 0.0
2017-Mar-28 09:31N 51°54' E 004°20'0 0.0
2017-Mar-28 08:31N 51°54' E 004°20'0 0.0
2017-Mar-28 07:31N 51°54' E 004°20'0 0.0
2017-Mar-28 06:31N 51°54' E 004°20'0 0.0
2017-Mar-28 05:31N 51°54' E 004°20'0 0.0
2017-Mar-28 04:31N 51°54' E 004°20'0 0.0
2017-Mar-28 03:31N 51°54' E 004°20'0 0.0
2017-Mar-28 02:31N 51°54' E 004°20'0 0.0
2017-Mar-28 01:31N 51°54' E 004°20'0 0.0
2017-Mar-28 00:31N 51°54' E 004°20'0 0.0
2017-Mar-27 23:28N 51°54' E 004°20'0 0.0
2017-Mar-27 22:31N 51°54' E 004°20'0 0.0
2017-Mar-27 21:31N 51°54' E 004°20'0 0.0
2017-Mar-27 20:31N 51°54' E 004°20'1 1.3
2017-Mar-27 19:34N 51°54' E 004°18'6 6.2
2017-Mar-27 18:33N 51°57' E 004°10'7 7.0
2017-Mar-27 17:33N 51°60' E 003°59'9 9.0
2017-Mar-27 16:33N 51°59' E 003°45'10 9.8
2017-Mar-27 15:30N 51°56' E 003°28'1010.3
2017-Mar-27 14:32N 51°53' E 003°13'1110.6
2017-Mar-27 13:32N 51°50' E 002°57'1110.7
2017-Mar-27 12:33N 51°46' E 002°40'1110.7
2017-Mar-27 11:33N 51°38' E 002°29'1010.3
2017-Mar-27 10:33N 51°31' E 002°18'9 9.3
2017-Mar-27 09:32N 51°22' E 002°11'8 8.3
2017-Mar-27 08:33N 51°15' E 002°05'7 7.0
2017-Mar-27 07:33N 51°10' E 001°57'7 7.0
2017-Mar-27 06:33N 51°06' E 001°48'7 7.0
2017-Mar-27 05:33N 51°01' E 001°40'8 7.1
2017-Mar-27 04:25N 50°55' E 001°32'9 8.2
2017-Mar-27 03:17N 50°47' E 001°26'7 8.8
2017-Mar-27 02:31N 50°41' E 001°21'54 9.0
2017-Mar-26 20:33N 50°19' E 000°03'1010.3
2017-Mar-26 19:33N 50°16' W 000°12'1010.4
2017-Mar-26 18:33N 50°13' W 000°28'1010.2
2017-Mar-26 17:33N 50°11' W 000°43'9 9.5
2017-Mar-26 16:33N 50°08' W 000°57'8 8.0
2017-Mar-26 15:33N 50°06' W 001°09'6 6.3
2017-Mar-26 14:33N 50°04' W 001°19'5 4.6
2017-Mar-26 13:32N 50°03' W 001°26'4 3.8
2017-Mar-26 12:33N 50°02' W 001°31'4 3.6
2017-Mar-26 11:33N 50°01' W 001°37'4 4.4
2017-Mar-26 10:34N 50°00' W 001°43'6 5.6
2017-Mar-26 09:33N 49°58' W 001°51'7 7.0
2017-Mar-26 08:33N 49°56' W 002°02'129 5.8
2017-Mar-25 10:11N 48°60' W 005°00'16 4.5
2017-Mar-25 06:33N 48°52' W 005°22'  
2017-Mar-21 13:33N 39°20' W 009°51'8 7.7
2017-Mar-21 12:33N 39°13' W 009°51'7 7.4
2017-Mar-21 11:33N 39°05' W 009°51'7 7.4
2017-Mar-21 10:34N 38°58' W 009°51'8 7.9
2017-Mar-21 09:33N 38°50' W 009°51'8 8.0
2017-Mar-21 08:33N 38°42' W 009°51'8 8.1
2017-Mar-21 07:33N 38°34' W 009°48'9 9.0
2017-Mar-21 06:33N 38°25' W 009°46'8 8.4
2017-Mar-21 05:33N 38°17' W 009°43'  
Track history (hours):
 
Tides and Currents Weather Stations Pressure Air Temp Water Temp Dewpoint Dewpoint Depression Visibility Wind Speed Wind Dir Waves Ship Positions

Juergen K

Last reported at 2017-Mar-30 22:33 UTC. Time now 2017-Mar-30 22:38 UTC.
Position N 51°10' E 003°47'.

; draft 3.6 m.

Type: Cargo ship. MMSI: 244329000.

Date/timePositionNaut miles runAvg speedWind from/ knotsBaromVisibWave heightAir tempDewpointWater temp
2017-Mar-30 22:33N 51°10' E 003°47'0 0.0
2017-Mar-30 21:33N 51°10' E 003°47'0 0.0
2017-Mar-30 20:30N 51°10' E 003°47'0 0.0
2017-Mar-30 19:24N 51°10' E 003°47'0 0.0
2017-Mar-30 18:30N 51°10' E 003°47'0 0.0
2017-Mar-30 17:30N 51°10' E 003°47'0 0.0
2017-Mar-30 16:33N 51°10' E 003°47'0 0.0
2017-Mar-30 15:33N 51°10' E 003°47'0 0.0
2017-Mar-30 14:33N 51°10' E 003°47'0 0.0
2017-Mar-30 13:33N 51°10' E 003°47'0 0.0
2017-Mar-30 12:33N 51°10' E 003°47'0 0.0
2017-Mar-30 11:33N 51°10' E 003°47'0 0.0
2017-Mar-30 10:33N 51°10' E 003°47'0 0.0
2017-Mar-30 09:33N 51°10' E 003°47'0 0.0
2017-Mar-30 08:33N 51°10' E 003°47'0 0.0
2017-Mar-30 07:30N 51°10' E 003°47'0 0.0
2017-Mar-30 06:33N 51°10' E 003°47'3 3.4
2017-Mar-30 05:33N 51°13' E 003°48'6 6.3
2017-Mar-30 04:33N 51°19' E 003°49'1 1.3
2017-Mar-30 03:33N 51°20' E 003°49'9 9.0
2017-Mar-30 02:33N 51°25' E 003°37'1010.2
2017-Mar-30 01:33N 51°33' E 003°25'1110.7
2017-Mar-30 00:29N 51°42' E 003°16'8 2.1
2017-Mar-29 20:30N 51°51' E 003°15'19 8.8
2017-Mar-29 18:19N 52°03' E 003°39'810.3
2017-Mar-29 17:33N 52°04' E 003°51'10 9.9
2017-Mar-29 16:33N 51°59' E 004°06'9 8.8
2017-Mar-29 15:33N 51°54' E 004°17'2 1.5
2017-Mar-29 14:31N 51°54' E 004°20'0 0.0
2017-Mar-29 13:31N 51°54' E 004°20'0 0.0
2017-Mar-29 12:31N 51°54' E 004°20'0 0.0
2017-Mar-29 11:31N 51°54' E 004°20'0 0.0
2017-Mar-29 10:31N 51°54' E 004°20'0 0.0
2017-Mar-29 09:28N 51°54' E 004°20'0 0.0
2017-Mar-29 08:31N 51°54' E 004°20'0 0.0
2017-Mar-29 07:31N 51°54' E 004°20'0 0.0
2017-Mar-29 06:31N 51°54' E 004°20'0 0.0
2017-Mar-29 05:31N 51°54' E 004°20'0 0.0
2017-Mar-29 04:31N 51°54' E 004°20'0 0.0
2017-Mar-29 03:31N 51°54' E 004°20'0 0.0
2017-Mar-29 02:31N 51°54' E 004°20'0 0.0
2017-Mar-29 01:31N 51°54' E 004°20'0 0.0
2017-Mar-29 00:31N 51°54' E 004°20'0 0.0
2017-Mar-28 23:31N 51°54' E 004°20'0 0.0
2017-Mar-28 22:28N 51°54' E 004°20'0 0.0
2017-Mar-28 21:31N 51°54' E 004°20'0 0.0
2017-Mar-28 20:31N 51°54' E 004°20'0 0.0
2017-Mar-28 19:31N 51°54' E 004°20'0 0.0
2017-Mar-28 18:28N 51°54' E 004°20'0 0.0
2017-Mar-28 17:31N 51°54' E 004°20'0 0.0
2017-Mar-28 16:31N 51°54' E 004°20'0 0.0
2017-Mar-28 15:31N 51°54' E 004°20'0 0.0
2017-Mar-28 14:31N 51°54' E 004°20'0 0.0
2017-Mar-28 13:31N 51°54' E 004°20'0 0.0
2017-Mar-28 12:31N 51°54' E 004°20'0 0.0
2017-Mar-28 11:31N 51°54' E 004°20'0 0.0
2017-Mar-28 10:31N 51°54' E 004°20'0 0.0
2017-Mar-28 09:31N 51°54' E 004°20'0 0.0
2017-Mar-28 08:31N 51°54' E 004°20'0 0.0
2017-Mar-28 07:31N 51°54' E 004°20'0 0.0
2017-Mar-28 06:31N 51°54' E 004°20'0 0.0
2017-Mar-28 05:31N 51°54' E 004°20'0 0.0
2017-Mar-28 04:31N 51°54' E 004°20'0 0.0
2017-Mar-28 03:31N 51°54' E 004°20'0 0.0
2017-Mar-28 02:31N 51°54' E 004°20'0 0.0
2017-Mar-28 01:31N 51°54' E 004°20'0 0.0
2017-Mar-28 00:31N 51°54' E 004°20'0 0.0
2017-Mar-27 23:28N 51°54' E 004°20'0 0.0
2017-Mar-27 22:31N 51°54' E 004°20'0 0.0
2017-Mar-27 21:31N 51°54' E 004°20'0 0.0
2017-Mar-27 20:31N 51°54' E 004°20'1 1.3
2017-Mar-27 19:34N 51°54' E 004°18'6 6.2
2017-Mar-27 18:33N 51°57' E 004°10'7 7.0
2017-Mar-27 17:33N 51°60' E 003°59'9 9.0
2017-Mar-27 16:33N 51°59' E 003°45'10 9.8
2017-Mar-27 15:30N 51°56' E 003°28'1010.3
2017-Mar-27 14:32N 51°53' E 003°13'1110.6
2017-Mar-27 13:32N 51°50' E 002°57'1110.7
2017-Mar-27 12:33N 51°46' E 002°40'1110.7
2017-Mar-27 11:33N 51°38' E 002°29'1010.3
2017-Mar-27 10:33N 51°31' E 002°18'9 9.3
2017-Mar-27 09:32N 51°22' E 002°11'8 8.3
2017-Mar-27 08:33N 51°15' E 002°05'7 7.0
2017-Mar-27 07:33N 51°10' E 001°57'7 7.0
2017-Mar-27 06:33N 51°06' E 001°48'7 7.0
2017-Mar-27 05:33N 51°01' E 001°40'8 7.1
2017-Mar-27 04:25N 50°55' E 001°32'9 8.2
2017-Mar-27 03:17N 50°47' E 001°26'7 8.8
2017-Mar-27 02:31N 50°41' E 001°21'54 9.0
2017-Mar-26 20:33N 50°19' E 000°03'1010.3
2017-Mar-26 19:33N 50°16' W 000°12'1010.4
2017-Mar-26 18:33N 50°13' W 000°28'1010.2
2017-Mar-26 17:33N 50°11' W 000°43'9 9.5
2017-Mar-26 16:33N 50°08' W 000°57'8 8.0
2017-Mar-26 15:33N 50°06' W 001°09'6 6.3
2017-Mar-26 14:33N 50°04' W 001°19'5 4.6
2017-Mar-26 13:32N 50°03' W 001°26'4 3.8
2017-Mar-26 12:33N 50°02' W 001°31'4 3.6
2017-Mar-26 11:33N 50°01' W 001°37'4 4.4
2017-Mar-26 10:34N 50°00' W 001°43'6 5.6
2017-Mar-26 09:33N 49°58' W 001°51'7 7.0
2017-Mar-26 08:33N 49°56' W 002°02'129 5.8
2017-Mar-25 10:11N 48°60' W 005°00'16 4.5
2017-Mar-25 06:33N 48°52' W 005°22'  
2017-Mar-21 13:33N 39°20' W 009°51'8 7.7
2017-Mar-21 12:33N 39°13' W 009°51'7 7.4
2017-Mar-21 11:33N 39°05' W 009°51'7 7.4
2017-Mar-21 10:34N 38°58' W 009°51'8 7.9
2017-Mar-21 09:33N 38°50' W 009°51'8 8.0
2017-Mar-21 08:33N 38°42' W 009°51'8 8.1
2017-Mar-21 07:33N 38°34' W 009°48'9 9.0
2017-Mar-21 06:33N 38°25' W 009°46'8 8.4
2017-Mar-21 05:33N 38°17' W 009°43'  

Dump ship's entire track history